Time;durP1;ratioP1;P1;durP2;ratioP2;P2;SDS_P1;SDS_P2;PMS_P1;PMS_P2;Temp;Humidity;BMP_temperature;BMP_pressure;BME280_temperature;BME280_humidity;BME280_pressure;Samples;Min_cycle;Max_cycle;Signal;HPM_P1;HPM_P2
2022/11/26 00:00:44;;;;;;;33.53;16.80;;;2.30;99.90;;;;;;4129526;28;20829;-64
2022/11/26 00:02:46;;;;;;;36.10;18.43;;;2.40;99.90;;;;;;4145710;28;20667;-65
2022/11/26 00:04:48;;;;;;;36.97;19.57;;;2.30;99.90;;;;;;4146821;28;20731;-68
2022/11/26 00:06:49;;;;;;;36.53;17.57;;;2.30;99.90;;;;;;4145670;28;20295;-64
2022/11/26 00:08:50;;;;;;;34.27;17.53;;;2.30;99.90;;;;;;4146915;28;20593;-67
2022/11/26 00:10:52;;;;;;;32.40;17.93;;;2.30;99.90;;;;;;4145703;28;20716;-71
2022/11/26 00:12:55;;;;;;;37.73;19.70;;;2.30;99.90;;;;;;4145860;28;20319;-73
2022/11/26 00:14:58;;;;;;;35.90;17.30;;;2.30;99.90;;;;;;4145467;28;20276;-64
2022/11/26 00:17:00;;;;;;;32.00;15.23;;;2.20;99.90;;;;;;4146300;28;20275;-64
2022/11/26 00:19:01;;;;;;;33.00;17.27;;;2.30;99.90;;;;;;4145789;28;20736;-63
2022/11/26 00:21:03;;;;;;;29.50;15.97;;;2.30;99.90;;;;;;4145426;28;20644;-64
2022/11/26 00:23:05;;;;;;;28.57;15.73;;;2.20;99.90;;;;;;4146445;28;20756;-65
2022/11/26 00:25:14;;;;;;;27.00;15.70;;;2.20;99.90;;;;;;4145487;28;20291;-65
2022/11/26 00:27:15;;;;;;;28.70;15.70;;;2.30;99.90;;;;;;4145676;28;20885;-73
2022/11/26 00:29:16;;;;;;;31.80;16.37;;;2.20;99.90;;;;;;4145383;28;20748;-65
2022/11/26 00:31:18;;;;;;;32.33;15.77;;;2.30;99.90;;;;;;4145765;28;20284;-71
2022/11/26 00:33:19;;;;;;;29.37;16.73;;;2.30;99.90;;;;;;4145208;28;20275;-70
2022/11/26 00:35:21;;;;;;;29.07;16.27;;;2.20;99.90;;;;;;4128728;28;20316;-67
2022/11/26 00:37:38;;;;;;;33.60;16.63;;;2.20;99.90;;;;;;4145357;28;20275;-65
2022/11/26 00:39:40;;;;;;;29.17;16.00;;;2.20;99.90;;;;;;4146062;28;20342;-66
2022/11/26 00:41:46;;;;;;;30.30;15.57;;;2.30;99.90;;;;;;4145005;28;20329;-68
2022/11/26 00:43:48;;;;;;;29.93;16.17;;;2.30;99.90;;;;;;4146333;28;20631;-66
2022/11/26 00:45:49;;;;;;;27.20;14.43;;;2.20;99.90;;;;;;4144532;28;20263;-64
2022/11/26 00:47:51;;;;;;;27.20;15.20;;;2.20;99.90;;;;;;4127477;28;20355;-64
2022/11/26 00:49:52;;;;;;;26.07;14.90;;;2.20;99.90;;;;;;4128927;28;20260;-64
2022/11/26 00:51:53;;;;;;;28.00;14.67;;;2.20;99.90;;;;;;4129871;28;20327;-66
2022/11/26 00:53:58;;;;;;;22.80;13.70;;;2.20;99.90;;;;;;4129017;28;20799;-63
2022/11/26 00:56:00;;;;;;;21.83;12.77;;;2.20;99.90;;;;;;4129141;28;20260;-64
2022/11/26 00:58:02;;;;;;;23.57;12.47;;;2.20;99.90;;;;;;4129234;28;20256;-65
2022/11/26 01:00:17;;;;;;;22.93;12.60;;;2.20;99.90;;;;;;4127549;28;20708;-64
2022/11/26 01:02:18;;;;;;;19.63;11.83;;;2.20;99.90;;;;;;4128775;28;20284;-69
2022/11/26 01:04:19;;;;;;;21.53;11.73;;;2.20;99.90;;;;;;4129016;28;20315;-63
2022/11/26 01:06:29;;;;;;;21.50;11.17;;;2.20;99.90;;;;;;4129466;28;20798;-62
2022/11/26 01:08:34;;;;;;;23.90;11.43;;;2.20;99.90;;;;;;4128511;28;20276;-63
2022/11/26 01:10:36;;;;;;;21.70;10.73;;;2.20;99.90;;;;;;4128851;28;20042;-63
2022/11/26 01:12:37;;;;;;;19.40;10.30;;;2.20;99.90;;;;;;4128706;28;20700;-64
2022/11/26 01:14:38;;;;;;;19.40;10.03;;;2.20;99.90;;;;;;4129761;28;20268;-64
2022/11/26 01:16:41;;;;;;;16.57;9.43;;;2.30;99.90;;;;;;4129020;28;20545;-65
2022/11/26 01:18:42;;;;;;;15.97;8.90;;;2.30;99.90;;;;;;4129551;28;20268;-64
2022/11/26 01:20:44;;;;;;;19.17;9.63;;;2.40;99.90;;;;;;4128168;28;20279;-64
2022/11/26 01:22:45;;;;;;;16.63;9.30;;;2.40;99.90;;;;;;4129422;28;20272;-64
2022/11/26 01:24:47;;;;;;;17.10;9.27;;;2.40;99.90;;;;;;4128094;28;20275;-69
2022/11/26 01:26:48;;;;;;;18.03;10.40;;;2.40;99.90;;;;;;4129580;28;20280;-65
2022/11/26 01:28:49;;;;;;;19.73;10.00;;;2.50;99.90;;;;;;4128598;28;20256;-63
2022/11/26 01:30:51;;;;;;;16.87;9.30;;;2.50;99.90;;;;;;4129274;28;20640;-67
2022/11/26 01:32:52;;;;;;;20.20;9.27;;;2.50;99.90;;;;;;4128266;28;20872;-67
2022/11/26 01:34:53;;;;;;;17.70;9.97;;;2.50;99.90;;;;;;4128799;28;20323;-76
2022/11/26 01:36:54;;;;;;;18.30;9.43;;;2.50;99.90;;;;;;4128841;28;20255;-63
2022/11/26 01:38:58;;;;;;;18.07;9.77;;;2.50;99.90;;;;;;4128562;28;20310;-63
2022/11/26 01:41:14;;;;;;;15.20;9.30;;;2.50;99.90;;;;;;4129030;28;20321;-64
2022/11/26 01:43:42;;;;;;;14.80;9.03;;;2.50;99.90;;;;;;4128401;28;20378;-63
2022/11/26 01:45:43;;;;;;;21.00;9.80;;;2.60;99.90;;;;;;4124935;28;20830;-64
2022/11/26 01:47:47;;;;;;;16.00;9.60;;;2.50;99.90;;;;;;4141068;28;20989;-63
2022/11/26 01:50:26;;;;;;;17.07;9.43;;;2.50;99.90;;;;;;4144245;28;20271;-65
2022/11/26 01:52:28;;;;;;;17.37;10.07;;;2.50;99.90;;;;;;4144545;28;20287;-65
2022/11/26 01:54:31;;;;;;;18.93;10.60;;;2.50;99.90;;;;;;4143846;28;20959;-65
2022/11/26 01:56:44;;;;;;;17.07;9.60;;;2.50;99.90;;;;;;4146349;28;20263;-63
2022/11/26 01:58:51;;;;;;;18.70;9.73;;;2.60;99.90;;;;;;4148070;28;20256;-70
2022/11/26 02:00:52;;;;;;;19.67;9.03;;;2.60;99.90;;;;;;4148377;28;20742;-75
2022/11/26 02:02:54;;;;;;;19.03;9.47;;;2.60;99.90;;;;;;4147085;28;20330;-76
2022/11/26 02:05:22;;;;;;;16.00;9.43;;;2.50;99.90;;;;;;4147305;28;20616;-70
2022/11/26 02:07:23;;;;;;;18.27;10.23;;;2.50;99.90;;;;;;4147261;28;20341;-73
2022/11/26 02:09:26;;;;;;;31.00;15.30;;;2.50;99.90;;;;;;4147261;28;20318;-73
2022/11/26 02:11:28;;;;;;;17.40;9.83;;;2.50;99.90;;;;;;4147589;28;20256;-73
2022/11/26 02:13:29;;;;;;;17.37;9.63;;;2.50;99.90;;;;;;4147606;28;20330;-72
2022/11/26 02:15:46;;;;;;;19.80;10.13;;;2.50;99.90;;;;;;4148749;28;20671;-69
2022/11/26 02:18:01;;;;;;;18.23;9.93;;;2.50;99.90;;;;;;4147648;28;20275;-68
2022/11/26 02:20:20;;;;;;;16.13;9.53;;;2.50;99.90;;;;;;4148199;28;20395;-69
2022/11/26 02:22:29;;;;;;;16.63;9.17;;;2.50;99.90;;;;;;4147722;28;20279;-74
2022/11/26 02:24:36;;;;;;;18.07;9.30;;;2.50;99.90;;;;;;4148208;28;20263;-69
2022/11/26 02:26:58;;;;;;;20.67;10.87;;;2.50;99.90;;;;;;4147946;28;20322;-72
2022/11/26 02:29:29;;;;;;;19.63;10.33;;;2.50;99.90;;;;;;4147476;28;20321;-72
2022/11/26 02:31:39;;;;;;;18.40;10.88;;;2.50;99.90;;;;;;4148408;28;20747;-72
2022/11/26 02:34:06;;;;;;;21.97;10.77;;;2.50;99.90;;;;;;4147133;28;20533;-63
2022/11/26 02:36:13;;;;;;;18.60;10.70;;;2.40;99.90;;;;;;4132081;28;20695;-70
2022/11/26 02:38:20;;;;;;;20.33;10.17;;;2.40;99.90;;;;;;4129541;28;20269;-70
2022/11/26 02:40:23;;;;;;;19.97;10.40;;;2.40;99.90;;;;;;4147993;28;20267;-71
2022/11/26 02:42:27;;;;;;;16.60;9.97;;;2.40;99.90;;;;;;4147084;28;20279;-69
2022/11/26 02:44:39;;;;;;;20.07;10.60;;;2.40;99.90;;;;;;4148173;28;20322;-71
2022/11/26 02:46:41;;;;;;;14.83;8.90;;;2.40;99.90;;;;;;4147106;28;20295;-66
2022/11/26 02:48:46;;;;;;;15.43;9.37;;;2.40;99.90;;;;;;4130237;28;20337;-75
2022/11/26 02:50:55;;;;;;;15.93;9.37;;;2.40;99.90;;;;;;4146426;28;20357;-65
2022/11/26 02:52:58;;;;;;;20.53;9.37;;;2.40;99.90;;;;;;4147241;28;20264;-74
2022/11/26 02:55:02;;;;;;;17.57;9.70;;;2.50;99.90;;;;;;4147180;28;20263;-65
2022/11/26 02:57:06;;;;;;;20.80;10.63;;;2.40;99.90;;;;;;4147277;28;20275;-66
2022/11/26 02:59:07;;;;;;;19.30;10.83;;;2.40;99.90;;;;;;4147217;28;20310;-69
2022/11/26 03:01:19;;;;;;;20.80;12.03;;;2.30;99.90;;;;;;4147343;28;21075;-65
2022/11/26 03:03:25;;;;;;;22.10;11.53;;;2.30;99.90;;;;;;4147160;28;20263;-74
2022/11/26 03:05:29;;;;;;;20.87;11.40;;;2.20;99.90;;;;;;4146440;28;20722;-67
2022/11/26 03:07:33;;;;;;;21.50;11.23;;;2.10;99.90;;;;;;4145822;28;20287;-68
2022/11/26 03:09:47;;;;;;;18.27;10.40;;;2.10;99.90;;;;;;4146392;28;20286;-71
2022/11/26 03:11:48;;;;;;;20.07;10.57;;;2.00;99.90;;;;;;4147005;28;20810;-74
2022/11/26 03:13:49;;;;;;;18.23;10.33;;;2.00;99.90;;;;;;4146841;28;20682;-67
2022/11/26 03:15:51;;;;;;;19.70;9.50;;;2.00;99.90;;;;;;4147534;28;20271;-65
2022/11/26 03:17:52;;;;;;;17.77;9.40;;;2.00;99.90;;;;;;4146150;28;20338;-68
2022/11/26 03:19:53;;;;;;;17.90;9.33;;;2.00;99.90;;;;;;4146972;28;20330;-66
2022/11/26 03:21:55;;;;;;;18.23;9.50;;;1.90;99.90;;;;;;4145742;28;20338;-68
2022/11/26 03:23:56;;;;;;;23.13;12.03;;;1.90;99.90;;;;;;4147491;28;20264;-66
2022/11/26 03:25:57;;;;;;;24.50;13.47;;;1.80;99.90;;;;;;4145313;28;20783;-67
2022/11/26 03:27:58;;;;;;;27.03;13.30;;;1.70;99.90;;;;;;4147338;28;20353;-67
2022/11/26 03:29:59;;;;;;;22.13;12.07;;;1.60;99.90;;;;;;4128640;28;20276;-69
2022/11/26 03:32:00;;;;;;;22.77;13.63;;;1.50;99.90;;;;;;4129134;28;20272;-68
2022/11/26 03:34:01;;;;;;;25.20;13.33;;;1.50;99.90;;;;;;4146390;28;20251;-73
2022/11/26 03:36:03;;;;;;;20.93;12.53;;;1.50;99.90;;;;;;4146635;28;20264;-64
2022/11/26 03:38:04;;;;;;;22.83;11.50;;;1.50;99.90;;;;;;4146524;28;20256;-62
2022/11/26 03:40:06;;;;;;;21.63;12.27;;;1.50;99.90;;;;;;4146580;28;20727;-65
2022/11/26 03:42:07;;;;;;;26.43;11.60;;;1.50;99.90;;;;;;4146863;28;20357;-64
2022/11/26 03:46:19;;;;;;;;;;;1.40;99.90;;;;;;4238335;23;20290;-65
2022/11/26 03:48:20;;;;;;;;;;;1.40;99.90;;;;;;4162990;28;19917;-66
2022/11/26 03:50:21;;;;;;;;;;;1.50;99.90;;;;;;4164052;28;19912;-65
2022/11/26 03:52:22;;;;;;;17.35;9.38;;;1.50;99.90;;;;;;4162391;28;19905;-65
2022/11/26 03:54:23;;;;;;;18.47;9.50;;;1.50;99.90;;;;;;4163458;28;20029;-65
2022/11/26 03:56:24;;;;;;;16.57;9.57;;;1.50;99.90;;;;;;4144267;28;20267;-63
2022/11/26 03:58:25;;;;;;;18.37;10.03;;;1.60;99.90;;;;;;4162718;28;20344;-64
2022/11/26 04:00:26;;;;;;;21.80;9.90;;;1.60;99.90;;;;;;4162307;28;20333;-64
2022/11/26 04:02:28;;;;;;;26.63;13.33;;;1.60;99.90;;;;;;4162578;28;20313;-63
2022/11/26 04:04:29;;;;;;;20.20;11.70;;;1.60;99.90;;;;;;4144812;28;20296;-64
2022/11/26 04:06:31;;;;;;;19.90;9.83;;;1.70;99.90;;;;;;4162324;28;20673;-64
2022/11/26 04:08:32;;;;;;;21.23;11.10;;;1.80;99.90;;;;;;4162011;28;20336;-64
2022/11/26 04:10:33;;;;;;;20.13;10.53;;;1.80;99.90;;;;;;4161134;28;20935;-64
2022/11/26 04:12:34;;;;;;;19.47;10.80;;;1.80;99.90;;;;;;4163093;28;20270;-64
2022/11/26 04:14:35;;;;;;;19.57;9.83;;;1.80;99.90;;;;;;4144504;28;20267;-65
2022/11/26 04:16:36;;;;;;;19.73;10.97;;;1.80;99.90;;;;;;4163001;28;20754;-63
2022/11/26 04:18:37;;;;;;;17.80;10.40;;;1.90;99.90;;;;;;4144099;28;21203;-63
2022/11/26 04:20:39;;;;;;;21.77;12.40;;;1.90;99.90;;;;;;4162547;28;20325;-63
2022/11/26 04:22:40;;;;;;;26.87;12.27;;;1.90;99.90;;;;;;4161861;28;20636;-70
2022/11/26 04:24:41;;;;;;;21.43;11.47;;;1.90;99.90;;;;;;4162916;28;20275;-64
2022/11/26 04:26:42;;;;;;;20.47;10.60;;;1.90;99.90;;;;;;4161391;28;20369;-65
2022/11/26 04:28:43;;;;;;;19.97;11.37;;;1.90;99.90;;;;;;4162506;28;20364;-63
2022/11/26 04:30:45;;;;;;;26.77;11.37;;;1.90;99.90;;;;;;4161263;28;20296;-66
2022/11/26 04:32:46;;;;;;;17.37;9.87;;;2.00;99.90;;;;;;4162431;28;20401;-71
2022/11/26 04:34:47;;;;;;;18.53;10.10;;;2.00;99.90;;;;;;4162041;28;20271;-65
2022/11/26 04:36:48;;;;;;;20.17;10.77;;;2.00;99.90;;;;;;4162009;28;20677;-63
2022/11/26 04:38:49;;;;;;;19.83;10.40;;;2.00;99.90;;;;;;4162319;28;20271;-66
2022/11/26 04:40:50;;;;;;;21.03;10.57;;;2.00;99.90;;;;;;4160932;28;20324;-64
2022/11/26 04:42:51;;;;;;;21.03;11.23;;;2.00;99.90;;;;;;4161580;28;20677;-66
2022/11/26 04:44:52;;;;;;;23.03;11.43;;;2.10;99.90;;;;;;4161262;28;20279;-67
2022/11/26 04:46:53;;;;;;;22.50;11.97;;;2.10;99.90;;;;;;4162408;28;20290;-70
2022/11/26 04:48:54;;;;;;;21.07;10.97;;;2.10;99.90;;;;;;4161122;28;20782;-71
2022/11/26 04:50:56;;;;;;;20.37;10.70;;;2.00;99.90;;;;;;4162150;28;20738;-67
2022/11/26 04:52:57;;;;;;;18.53;9.77;;;2.10;99.90;;;;;;4161243;28;20332;-66
2022/11/26 04:54:58;;;;;;;17.77;9.83;;;2.10;99.90;;;;;;4162226;28;20279;-71
2022/11/26 04:56:59;;;;;;;19.37;9.70;;;2.10;99.90;;;;;;4160840;28;20341;-65
2022/11/26 04:59:00;;;;;;;16.43;8.33;;;2.20;99.90;;;;;;4162087;28;20615;-68
2022/11/26 05:01:01;;;;;;;18.90;10.10;;;2.20;99.90;;;;;;4159573;28;20645;-67
2022/11/26 05:03:02;;;;;;;17.03;9.97;;;2.20;99.90;;;;;;4161464;28;20275;-68
2022/11/26 05:05:04;;;;;;;17.47;9.53;;;2.30;99.90;;;;;;4161257;28;20739;-69
2022/11/26 05:07:05;;;;;;;19.37;9.80;;;2.30;99.90;;;;;;4161223;28;20352;-63
2022/11/26 05:09:06;;;;;;;15.20;9.43;;;2.30;99.90;;;;;;4161396;28;20275;-65
2022/11/26 05:11:07;;;;;;;14.63;9.10;;;2.30;99.90;;;;;;4159393;28;20266;-65
2022/11/26 05:13:08;;;;;;;16.43;8.53;;;2.30;99.90;;;;;;4161692;28;20324;-65
2022/11/26 05:15:10;;;;;;;17.30;8.83;;;2.30;99.90;;;;;;4159939;28;20259;-65
2022/11/26 05:17:11;;;;;;;21.53;10.03;;;2.30;99.90;;;;;;4160448;28;20325;-65
2022/11/26 05:19:12;;;;;;;22.87;11.03;;;2.30;99.90;;;;;;4159459;28;20316;-65
2022/11/26 05:21:13;;;;;;;18.37;9.50;;;2.20;99.90;;;;;;4161128;28;20364;-65
2022/11/26 05:23:14;;;;;;;17.83;8.37;;;2.20;99.90;;;;;;4160197;28;20274;-65
2022/11/26 05:25:16;;;;;;;15.43;8.57;;;2.20;99.90;;;;;;4161672;28;20333;-68
2022/11/26 05:27:17;;;;;;;15.30;8.37;;;2.20;99.90;;;;;;4159655;28;20274;-65
2022/11/26 05:29:18;;;;;;;15.97;8.07;;;2.20;99.90;;;;;;4160716;28;20329;-65
2022/11/26 05:31:19;;;;;;;14.23;7.87;;;2.20;99.90;;;;;;4159789;28;20279;-68
2022/11/26 05:33:20;;;;;;;13.37;7.83;;;2.10;99.90;;;;;;4142876;28;20287;-67
2022/11/26 05:35:22;;;;;;;16.67;7.83;;;2.20;99.90;;;;;;4159510;28;20325;-64
2022/11/26 05:37:23;;;;;;;14.20;7.70;;;2.10;99.90;;;;;;4163008;28;20279;-71
2022/11/26 05:39:24;;;;;;;13.33;8.47;;;2.10;99.90;;;;;;4160594;28;20334;-64
2022/11/26 05:41:25;;;;;;;16.70;8.03;;;2.10;99.90;;;;;;4160874;28;20286;-65
2022/11/26 05:43:26;;;;;;;13.60;7.70;;;2.10;99.90;;;;;;4161696;28;20278;-65
2022/11/26 05:45:28;;;;;;;12.00;7.37;;;2.10;99.90;;;;;;4159598;28;20331;-67
2022/11/26 05:47:29;;;;;;;15.27;7.50;;;2.10;99.90;;;;;;4161701;28;20738;-64
2022/11/26 05:49:30;;;;;;;15.97;8.40;;;2.00;99.90;;;;;;4159912;28;20279;-74
2022/11/26 05:51:31;;;;;;;15.33;8.10;;;2.00;99.90;;;;;;4160977;28;20275;-65
2022/11/26 05:53:32;;;;;;;13.73;7.63;;;2.00;99.90;;;;;;4159420;28;20274;-65
2022/11/26 05:55:33;;;;;;;14.17;6.90;;;2.00;99.90;;;;;;4159760;28;20283;-64
2022/11/26 05:57:36;;;;;;;10.63;6.33;;;2.10;99.90;;;;;;4155907;28;20274;-71
2022/11/26 05:59:37;;;;;;;12.97;6.77;;;2.30;99.90;;;;;;4158395;28;20278;-65
2022/11/26 06:01:38;;;;;;;17.87;7.57;;;2.50;99.90;;;;;;4158277;28;20730;-65
2022/11/26 06:03:39;;;;;;;12.53;6.90;;;2.70;99.90;;;;;;4141482;28;20264;-64
2022/11/26 06:05:40;;;;;;;11.83;6.60;;;3.00;99.90;;;;;;4157606;28;20262;-68
2022/11/26 06:07:41;;;;;;;14.83;7.00;;;3.20;99.90;;;;;;4158192;28;20639;-64
2022/11/26 06:09:43;;;;;;;12.63;6.90;;;3.40;99.90;;;;;;4156946;28;20279;-65
2022/11/26 06:11:44;;;;;;;10.30;5.60;;;3.40;99.90;;;;;;4156956;28;20301;-65
2022/11/26 06:13:45;;;;;;;12.97;6.90;;;3.20;99.90;;;;;;4158647;28;20832;-64
2022/11/26 06:15:46;;;;;;;10.70;6.17;;;3.10;99.90;;;;;;4159078;28;20282;-63
2022/11/26 06:17:47;;;;;;;11.90;6.00;;;3.00;99.90;;;;;;4161184;28;20270;-65
2022/11/26 06:19:48;;;;;;;12.50;6.70;;;2.80;99.90;;;;;;4160361;28;20670;-64
2022/11/26 06:21:49;;;;;;;10.27;6.50;;;2.80;99.90;;;;;;4161603;28;20279;-68
2022/11/26 06:23:50;;;;;;;12.17;6.87;;;2.70;99.90;;;;;;4160551;28;20665;-66
2022/11/26 06:25:52;;;;;;;12.57;7.03;;;2.50;99.90;;;;;;4161384;28;20267;-65
2022/11/26 06:27:54;;;;;;;12.83;6.47;;;2.40;99.90;;;;;;4159397;28;20333;-71
2022/11/26 06:29:55;;;;;;;12.57;7.27;;;2.40;99.90;;;;;;4160334;28;20758;-65
2022/11/26 06:31:56;;;;;;;13.23;7.47;;;2.30;99.90;;;;;;4159134;28;20308;-70
2022/11/26 06:33:58;;;;;;;14.77;7.73;;;2.30;99.90;;;;;;4160598;28;20333;-72
2022/11/26 06:36:00;;;;;;;14.00;7.57;;;2.40;99.90;;;;;;4159823;28;20271;-65
2022/11/26 06:38:02;;;;;;;14.40;7.90;;;2.80;99.90;;;;;;4160548;28;20266;-65
2022/11/26 06:40:03;;;;;;;16.53;8.63;;;3.10;99.90;;;;;;4160816;28;20257;-65
2022/11/26 06:42:05;;;;;;;15.10;8.27;;;3.40;99.90;;;;;;4160381;28;20350;-66
2022/11/26 06:44:06;;;;;;;15.00;8.27;;;3.40;99.90;;;;;;4163034;28;20309;-67
2022/11/26 06:46:09;;;;;;;13.97;7.97;;;3.50;99.90;;;;;;4162881;28;20685;-66
2022/11/26 06:48:10;;;;;;;11.93;7.00;;;3.50;99.90;;;;;;4163852;28;20111;-65
2022/11/26 06:50:12;;;;;;;16.57;8.10;;;3.50;99.90;;;;;;4163072;28;20279;-65
2022/11/26 06:52:13;;;;;;;16.77;8.17;;;3.40;99.90;;;;;;4164277;28;20029;-65
2022/11/26 06:54:14;;;;;;;13.37;7.40;;;3.40;99.90;;;;;;4163302;28;20364;-66
2022/11/26 06:56:16;;;;;;;17.00;7.80;;;3.30;99.90;;;;;;4164157;28;20435;-66
2022/11/26 06:58:18;;;;;;;18.97;8.67;;;3.30;99.90;;;;;;4163064;28;20091;-66
2022/11/26 07:00:20;;;;;;;17.43;8.03;;;3.30;99.90;;;;;;4164309;28;20329;-65
2022/11/26 07:02:22;;;;;;;12.13;7.60;;;3.20;99.90;;;;;;4161740;28;20321;-64
2022/11/26 07:04:23;;;;;;;14.67;7.73;;;3.20;99.90;;;;;;4163822;28;20084;-65
2022/11/26 07:06:27;;;;;;;11.80;7.10;;;3.10;99.90;;;;;;4163003;28;20333;-65
2022/11/26 07:08:28;;;;;;;13.60;8.00;;;3.10;99.90;;;;;;4163535;28;20349;-65
2022/11/26 07:10:29;;;;;;;12.47;6.70;;;3.10;99.90;;;;;;4162433;28;20313;-65
2022/11/26 07:12:30;;;;;;;11.70;6.57;;;3.10;99.90;;;;;;4162308;28;20987;-66
2022/11/26 07:14:32;;;;;;;11.63;6.63;;;3.10;99.90;;;;;;4163095;28;20766;-65
2022/11/26 07:16:33;;;;;;;12.67;6.80;;;3.10;99.90;;;;;;4161721;28;20707;-65
2022/11/26 07:18:35;;;;;;;13.23;6.93;;;3.10;99.90;;;;;;4163163;28;20274;-66
2022/11/26 07:20:36;;;;;;;10.33;6.27;;;3.10;99.90;;;;;;4162222;28;20275;-64
2022/11/26 07:22:38;;;;;;;9.67;5.87;;;3.10;99.90;;;;;;4163809;28;20418;-65
2022/11/26 07:24:39;;;;;;;11.80;6.53;;;3.10;99.90;;;;;;4162596;28;20681;-65
2022/11/26 07:26:40;;;;;;;13.20;6.50;;;3.20;99.90;;;;;;4145435;28;20322;-65
2022/11/26 07:28:41;;;;;;;12.07;5.97;;;3.20;99.90;;;;;;4162448;28;20855;-66
2022/11/26 07:30:42;;;;;;;12.57;6.70;;;3.10;99.90;;;;;;4163462;28;20796;-70
2022/11/26 07:32:44;;;;;;;13.97;6.80;;;3.10;99.90;;;;;;4144187;28;20284;-77
2022/11/26 07:34:45;;;;;;;15.67;6.23;;;3.20;99.90;;;;;;4162648;28;20324;-65
2022/11/26 07:36:46;;;;;;;15.07;6.73;;;3.20;99.90;;;;;;4162540;28;20313;-65
2022/11/26 07:38:47;;;;;;;9.93;5.70;;;3.20;99.90;;;;;;4162444;28;20282;-65
2022/11/26 07:40:49;;;;;;;10.40;5.90;;;3.20;99.90;;;;;;4162393;28;20297;-64
2022/11/26 07:42:50;;;;;;;12.43;6.33;;;3.30;99.90;;;;;;4162753;28;20329;-68
2022/11/26 07:44:51;;;;;;;13.23;6.60;;;3.20;99.90;;;;;;4162809;28;20312;-64
2022/11/26 07:46:52;;;;;;;21.57;11.93;;;3.20;99.90;;;;;;4161318;28;20267;-64
2022/11/26 07:48:54;;;;;;;32.90;16.63;;;3.20;99.90;;;;;;4162664;28;21815;-65
2022/11/26 07:50:56;;;;;;;12.20;6.30;;;3.20;99.90;;;;;;4162148;28;20734;-65
2022/11/26 07:52:57;;;;;;;11.33;6.70;;;3.20;99.90;;;;;;4162613;28;20689;-65
2022/11/26 07:54:58;;;;;;;14.33;6.17;;;3.20;99.90;;;;;;4161207;28;20324;-65
2022/11/26 07:56:59;;;;;;;10.77;6.03;;;3.30;99.90;;;;;;4160803;28;20271;-64
2022/11/26 07:59:01;;;;;;;16.63;6.07;;;3.30;99.90;;;;;;4161902;28;20263;-64
2022/11/26 08:01:27;;;;;;;16.03;7.17;;;3.20;99.90;;;;;;4162934;28;20308;-64
2022/11/26 08:03:28;;;;;;;14.97;7.33;;;3.20;99.90;;;;;;4152297;28;20341;-69
2022/11/26 08:05:29;;;;;;;21.40;7.60;;;3.20;99.90;;;;;;4163003;28;20364;-66
2022/11/26 08:07:30;;;;;;;16.30;7.60;;;3.20;99.90;;;;;;4160726;28;20380;-67
2022/11/26 08:09:31;;;;;;;15.50;7.43;;;3.20;99.90;;;;;;4162798;28;20344;-65
2022/11/26 08:11:33;;;;;;;14.60;7.60;;;3.20;99.90;;;;;;4161669;28;20316;-65
2022/11/26 08:13:34;;;;;;;13.93;7.10;;;3.20;99.90;;;;;;4162667;28;21071;-63
2022/11/26 08:15:36;;;;;;;12.97;7.47;;;3.20;99.90;;;;;;4160829;28;20259;-65
2022/11/26 08:17:37;;;;;;;12.53;7.23;;;3.20;99.90;;;;;;4161469;28;20807;-63
2022/11/26 08:19:38;;;;;;;13.13;7.30;;;3.30;99.90;;;;;;4161345;28;20263;-64
2022/11/26 08:21:40;;;;;;;16.67;8.30;;;3.30;99.90;;;;;;4161814;28;20308;-64
2022/11/26 08:23:41;;;;;;;18.60;7.43;;;3.30;99.90;;;;;;4162333;28;20420;-65
2022/11/26 08:25:44;;;;;;;14.53;7.33;;;3.30;99.90;;;;;;4161279;28;20344;-67
2022/11/26 08:27:45;;;;;;;17.20;7.43;;;3.30;99.90;;;;;;4144098;28;20272;-63
2022/11/26 08:29:46;;;;;;;14.97;7.70;;;3.30;99.90;;;;;;4161577;28;20313;-65
2022/11/26 08:31:47;;;;;;;14.87;7.63;;;3.40;99.90;;;;;;4162550;28;20267;-65
2022/11/26 08:33:48;;;;;;;15.53;7.53;;;3.40;99.90;;;;;;4160432;28;20360;-66
2022/11/26 08:35:53;;;;;;;11.37;7.27;;;3.40;99.90;;;;;;4162268;28;20337;-65
2022/11/26 08:37:54;;;;;;;11.87;7.00;;;3.40;99.90;;;;;;4160439;28;20282;-66
2022/11/26 08:39:55;;;;;;;18.70;8.93;;;3.50;99.90;;;;;;4162338;28;20267;-65
2022/11/26 08:41:56;;;;;;;16.17;9.97;;;3.50;99.90;;;;;;4161204;28;20600;-67
2022/11/26 08:43:57;;;;;;;17.10;9.07;;;3.50;99.90;;;;;;4161634;28;20271;-65
2022/11/26 08:45:59;;;;;;;16.50;8.37;;;3.50;99.90;;;;;;4160213;28;20328;-67
2022/11/26 08:48:00;;;;;;;14.93;8.80;;;3.50;99.90;;;;;;4161239;28;20681;-67
2022/11/26 08:50:02;;;;;;;17.20;9.70;;;3.50;99.90;;;;;;4161423;28;20747;-68
2022/11/26 08:52:03;;;;;;;15.70;8.43;;;3.50;99.90;;;;;;4161444;28;20820;-67
2022/11/26 08:54:04;;;;;;;15.87;8.23;;;3.50;99.90;;;;;;4160790;28;20804;-69
2022/11/26 08:56:09;;;;;;;15.80;9.03;;;3.50;99.90;;;;;;4161230;28;20266;-67
2022/11/26 08:58:10;;;;;;;18.73;9.73;;;3.50;99.90;;;;;;4162447;28;20270;-67
2022/11/26 09:00:12;;;;;;;14.37;7.83;;;3.50;99.90;;;;;;4161034;28;20258;-66
2022/11/26 09:02:13;;;;;;;16.77;8.67;;;3.50;99.90;;;;;;4161701;28;20317;-67
2022/11/26 09:04:14;;;;;;;14.43;7.70;;;3.60;99.90;;;;;;4160997;28;20279;-68
2022/11/26 09:06:17;;;;;;;15.93;10.03;;;3.60;99.90;;;;;;4161193;28;20262;-70
2022/11/26 09:08:18;;;;;;;37.07;19.07;;;3.60;99.90;;;;;;4160254;28;20286;-67
2022/11/26 09:10:19;;;;;;;23.97;13.90;;;3.70;99.90;;;;;;4161610;28;20275;-67
2022/11/26 09:12:20;;;;;;;17.53;10.20;;;3.70;99.90;;;;;;4160504;28;20321;-65
2022/11/26 09:14:24;;;;;;;26.20;12.37;;;3.80;99.90;;;;;;4161808;28;20285;-64
2022/11/26 09:16:26;;;;;;;24.17;12.50;;;3.90;99.90;;;;;;4160499;28;20305;-66
2022/11/26 09:18:27;;;;;;;22.77;14.03;;;3.90;99.90;;;;;;4161343;28;20360;-67
2022/11/26 09:20:28;;;;;;;23.90;13.60;;;3.90;99.90;;;;;;4160802;28;20328;-64
2022/11/26 09:22:29;;;;;;;29.50;18.57;;;4.00;99.90;;;;;;4161314;28;20669;-65
2022/11/26 09:24:31;;;;;;;23.43;14.07;;;4.00;99.90;;;;;;4161388;28;20279;-67
2022/11/26 09:26:33;;;;;;;24.93;13.87;;;4.10;99.90;;;;;;4160376;28;20275;-64
2022/11/26 09:28:34;;;;;;;21.07;12.77;;;4.10;99.90;;;;;;4160850;28;20361;-68
2022/11/26 09:30:35;;;;;;;17.80;10.30;;;4.20;99.90;;;;;;4160051;28;20270;-64
2022/11/26 09:32:37;;;;;;;18.23;9.83;;;4.30;99.90;;;;;;4161080;28;20698;-65
2022/11/26 09:34:38;;;;;;;22.40;9.73;;;4.30;99.90;;;;;;4160418;28;20316;-65
2022/11/26 09:36:40;;;;;;;15.73;9.10;;;4.40;99.90;;;;;;4160704;28;20266;-65
2022/11/26 09:38:41;;;;;;;17.10;10.03;;;4.40;99.90;;;;;;4159762;28;20282;-64
2022/11/26 09:41:18;;;;;;;18.10;10.10;;;4.40;99.90;;;;;;4172747;28;20269;-66
2022/11/26 09:43:35;;;;;;;16.50;10.07;;;4.50;99.90;;;;;;4135792;28;20266;-64
2022/11/26 09:45:41;;;;;;;21.30;11.53;;;4.60;99.90;;;;;;4177427;28;20282;-64
2022/11/26 09:47:45;;;;;;;21.03;10.10;;;4.60;99.90;;;;;;4176978;28;20270;-64
2022/11/26 09:50:05;;;;;;;17.43;9.93;;;4.60;99.90;;;;;;4177890;28;20289;-64
2022/11/26 09:52:08;;;;;;;15.00;9.05;;;4.60;99.90;;;;;;4176203;28;20045;-64
2022/11/26 09:54:22;;;;;;;13.30;7.83;;;4.70;99.90;;;;;;4177817;28;20033;-65
2022/11/26 09:56:26;;;;;;;16.20;8.60;;;4.70;99.90;;;;;;4176830;28;20404;-64
2022/11/26 09:58:32;;;;;;;14.00;7.57;;;4.70;99.90;;;;;;4177080;28;20033;-64
2022/11/26 10:00:41;;;;;;;12.07;7.27;;;4.70;99.90;;;;;;4176348;28;20074;-68
2022/11/26 10:02:42;;;;;;;14.67;7.40;;;4.70;99.90;;;;;;4159525;28;20064;-66
2022/11/26 10:04:44;;;;;;;16.07;8.17;;;4.70;99.90;;;;;;4176464;28;20025;-66
2022/11/26 10:07:08;;;;;;;14.17;8.47;;;4.80;99.90;;;;;;4177656;28;20151;-68
2022/11/26 10:09:37;;;;;;;12.30;6.90;;;4.80;99.90;;;;;;4175531;28;20045;-67
2022/11/26 10:11:38;;;;;;;11.53;6.33;;;4.80;99.90;;;;;;4177305;28;20048;-67
2022/11/26 10:14:06;;;;;;;11.93;6.70;;;4.80;99.90;;;;;;4175795;28;20091;-66
2022/11/26 10:16:14;;;;;;;12.07;6.97;;;4.80;99.90;;;;;;4176794;28;20949;-68
2022/11/26 10:18:27;;;;;;;12.53;6.97;;;4.90;99.90;;;;;;4178762;28;20044;-66
2022/11/26 10:20:52;;;;;;;14.30;7.10;;;4.90;99.90;;;;;;4180946;28;20036;-68
2022/11/26 10:23:10;;;;;;;12.93;7.17;;;4.80;99.90;;;;;;4179719;28;20045;-65
2022/11/26 10:25:20;;;;;;;11.97;7.13;;;4.90;99.90;;;;;;4180670;28;20269;-65
2022/11/26 10:27:26;;;;;;;10.20;6.22;;;4.90;99.90;;;;;;4180069;28;20273;-67
2022/11/26 10:29:37;;;;;;;11.53;7.03;;;5.00;99.90;;;;;;4179420;28;20547;-66
2022/11/26 10:31:42;;;;;;;13.10;6.60;;;5.00;99.90;;;;;;4179182;28;20443;-65
2022/11/26 10:34:01;;;;;;;15.10;7.47;;;5.10;99.90;;;;;;4179455;28;20086;-68
2022/11/26 10:36:06;;;;;;;11.87;7.20;;;5.20;99.90;;;;;;4180151;28;20356;-67
2022/11/26 10:38:09;;;;;;;26.10;7.80;;;5.20;99.90;;;;;;4180207;28;20047;-66
2022/11/26 10:40:16;;;;;;;10.07;6.70;;;5.20;99.90;;;;;;4179830;28;20037;-66
2022/11/26 10:42:20;;;;;;;15.77;8.70;;;5.20;99.90;;;;;;4180262;28;20377;-67